sensor_id;sensor_type;location;lat;lon;timestamp;P1;durP1;ratioP1;P2;durP2;ratioP2
68224;SDS011;57497;43.322;21.932;2023-08-30T00:00:34;19.5;;;6.9;;
68224;SDS011;57497;43.322;21.932;2023-08-30T00:05:33;7.6;;;6.3;;
68224;SDS011;57497;43.322;21.932;2023-08-30T00:10:33;9.5;;;8.1;;
68224;SDS011;57497;43.322;21.932;2023-08-30T00:15:33;15.2;;;8.4;;
68224;SDS011;57497;43.322;21.932;2023-08-30T00:20:33;10.2;;;7.5;;
68224;SDS011;57497;43.322;21.932;2023-08-30T00:25:33;8.8;;;7.8;;
68224;SDS011;57497;43.322;21.932;2023-08-30T00:30:33;9.1;;;8.2;;
68224;SDS011;57497;43.322;21.932;2023-08-30T00:35:33;18.7;;;7.5;;
68224;SDS011;57497;43.322;21.932;2023-08-30T00:40:37;15.6;;;8.9;;
68224;SDS011;57497;43.322;21.932;2023-08-30T00:45:33;10.9;;;7.2;;
68224;SDS011;57497;43.322;21.932;2023-08-30T00:50:33;10.8;;;9;;
68224;SDS011;57497;43.322;21.932;2023-08-30T00:55:33;11;;;8.9;;
68224;SDS011;57497;43.322;21.932;2023-08-30T01:00:35;10.9;;;9.2;;
68224;SDS011;57497;43.322;21.932;2023-08-30T01:05:33;9.9;;;7.9;;
68224;SDS011;57497;43.322;21.932;2023-08-30T01:10:37;8.8;;;6.7;;
68224;SDS011;57497;43.322;21.932;2023-08-30T01:15:33;13.5;;;7.1;;
68224;SDS011;57497;43.322;21.932;2023-08-30T01:20:34;14.5;;;9.1;;
68224;SDS011;57497;43.322;21.932;2023-08-30T01:25:37;14.2;;;8;;
68224;SDS011;57497;43.322;21.932;2023-08-30T01:30:33;9;;;7.4;;
68224;SDS011;57497;43.322;21.932;2023-08-30T01:35:33;15.7;;;8.1;;
68224;SDS011;57497;43.322;21.932;2023-08-30T01:40:34;9.2;;;7.3;;
68224;SDS011;57497;43.322;21.932;2023-08-30T01:45:33;8.6;;;7.2;;
68224;SDS011;57497;43.322;21.932;2023-08-30T01:50:33;10.6;;;6.6;;
68224;SDS011;57497;43.322;21.932;2023-08-30T01:55:33;8.6;;;7.5;;
68224;SDS011;57497;43.322;21.932;2023-08-30T02:00:35;9;;;7.8;;
68224;SDS011;57497;43.322;21.932;2023-08-30T02:05:33;7.5;;;5.4;;
68224;SDS011;57497;43.322;21.932;2023-08-30T02:10:34;19.4;;;6.1;;
68224;SDS011;57497;43.322;21.932;2023-08-30T02:15:33;10.4;;;7;;
68224;SDS011;57497;43.322;21.932;2023-08-30T02:20:34;9.1;;;7;;
68224;SDS011;57497;43.322;21.932;2023-08-30T02:25:33;8.2;;;6.5;;
68224;SDS011;57497;43.322;21.932;2023-08-30T02:30:33;10.6;;;7.7;;
68224;SDS011;57497;43.322;21.932;2023-08-30T02:35:34;12.1;;;8;;
68224;SDS011;57497;43.322;21.932;2023-08-30T02:40:33;7.7;;;6.9;;
68224;SDS011;57497;43.322;21.932;2023-08-30T02:45:33;21.2;;;6.7;;
68224;SDS011;57497;43.322;21.932;2023-08-30T02:50:33;8.4;;;7;;
68224;SDS011;57497;43.322;21.932;2023-08-30T02:55:34;7.7;;;5.3;;
68224;SDS011;57497;43.322;21.932;2023-08-30T03:00:35;14.9;;;7.3;;
68224;SDS011;57497;43.322;21.932;2023-08-30T03:05:33;9;;;5.9;;
68224;SDS011;57497;43.322;21.932;2023-08-30T03:10:33;12.9;;;8.3;;
68224;SDS011;57497;43.322;21.932;2023-08-30T03:15:34;10.2;;;7.3;;
68224;SDS011;57497;43.322;21.932;2023-08-30T03:20:33;10.1;;;7.5;;
68224;SDS011;57497;43.322;21.932;2023-08-30T03:25:33;13.4;;;9.9;;
68224;SDS011;57497;43.322;21.932;2023-08-30T03:30:33;10.7;;;8.1;;
68224;SDS011;57497;43.322;21.932;2023-08-30T03:35:33;29.8;;;6.1;;
68224;SDS011;57497;43.322;21.932;2023-08-30T03:40:33;9.8;;;7.1;;
68224;SDS011;57497;43.322;21.932;2023-08-30T03:45:34;12.8;;;9;;
68224;SDS011;57497;43.322;21.932;2023-08-30T03:50:33;11.7;;;8.6;;
68224;SDS011;57497;43.322;21.932;2023-08-30T03:55:33;13.4;;;7.3;;
68224;SDS011;57497;43.322;21.932;2023-08-30T04:00:36;10.7;;;7.1;;
68224;SDS011;57497;43.322;21.932;2023-08-30T04:05:33;13.1;;;8.7;;
68224;SDS011;57497;43.322;21.932;2023-08-30T04:10:34;36.7;;;15.9;;
68224;SDS011;57497;43.322;21.932;2023-08-30T04:15:33;14.1;;;7.9;;
68224;SDS011;57497;43.322;21.932;2023-08-30T04:20:33;14.3;;;10.2;;
68224;SDS011;57497;43.322;21.932;2023-08-30T04:25:33;13.6;;;9.5;;
68224;SDS011;57497;43.322;21.932;2023-08-30T04:30:35;18.5;;;9.5;;
68224;SDS011;57497;43.322;21.932;2023-08-30T04:35:34;15.6;;;7.3;;
68224;SDS011;57497;43.322;21.932;2023-08-30T04:40:33;10;;;6.3;;
68224;SDS011;57497;43.322;21.932;2023-08-30T04:45:34;16.5;;;7.5;;
68224;SDS011;57497;43.322;21.932;2023-08-30T04:50:33;8;;;5.7;;
68224;SDS011;57497;43.322;21.932;2023-08-30T04:55:33;10.1;;;6.6;;
68224;SDS011;57497;43.322;21.932;2023-08-30T05:00:35;16.7;;;6.6;;
68224;SDS011;57497;43.322;21.932;2023-08-30T05:05:33;17.4;;;6.6;;
68224;SDS011;57497;43.322;21.932;2023-08-30T05:10:33;11.7;;;6.7;;
68224;SDS011;57497;43.322;21.932;2023-08-30T05:15:33;10.6;;;8.2;;
68224;SDS011;57497;43.322;21.932;2023-08-30T05:20:33;13.8;;;9.1;;
68224;SDS011;57497;43.322;21.932;2023-08-30T05:25:33;12.7;;;8.7;;
68224;SDS011;57497;43.322;21.932;2023-08-30T05:30:33;14.6;;;10;;
68224;SDS011;57497;43.322;21.932;2023-08-30T05:35:33;18.6;;;6.5;;
68224;SDS011;57497;43.322;21.932;2023-08-30T05:40:33;10.4;;;6.6;;
68224;SDS011;57497;43.322;21.932;2023-08-30T05:45:34;23.5;;;6.2;;
68224;SDS011;57497;43.322;21.932;2023-08-30T05:50:33;10.7;;;7.4;;
68224;SDS011;57497;43.322;21.932;2023-08-30T05:55:33;14.1;;;6.2;;
68224;SDS011;57497;43.322;21.932;2023-08-30T06:00:35;14.8;;;6.2;;
68224;SDS011;57497;43.322;21.932;2023-08-30T06:05:33;18;;;6.7;;
68224;SDS011;57497;43.322;21.932;2023-08-30T06:10:33;22.4;;;9.9;;
68224;SDS011;57497;43.322;21.932;2023-08-30T06:15:32;20;;;11.1;;
68224;SDS011;57497;43.322;21.932;2023-08-30T06:20:33;11.9;;;6.5;;
68224;SDS011;57497;43.322;21.932;2023-08-30T06:25:33;15.9;;;8.4;;
68224;SDS011;57497;43.322;21.932;2023-08-30T06:30:33;17.2;;;7;;
68224;SDS011;57497;43.322;21.932;2023-08-30T06:35:35;19.7;;;10.9;;
68224;SDS011;57497;43.322;21.932;2023-08-30T06:40:33;14.7;;;7.5;;
68224;SDS011;57497;43.322;21.932;2023-08-30T06:45:33;12.1;;;5.1;;
68224;SDS011;57497;43.322;21.932;2023-08-30T06:50:33;20.5;;;4.9;;
68224;SDS011;57497;43.322;21.932;2023-08-30T06:55:33;13.6;;;4.8;;
68224;SDS011;57497;43.322;21.932;2023-08-30T07:00:34;12.7;;;5.5;;
68224;SDS011;57497;43.322;21.932;2023-08-30T07:05:33;6.4;;;4.3;;
68224;SDS011;57497;43.322;21.932;2023-08-30T07:10:33;13.7;;;5.7;;
68224;SDS011;57497;43.322;21.932;2023-08-30T07:15:33;12.8;;;6.5;;
68224;SDS011;57497;43.322;21.932;2023-08-30T07:20:33;22.7;;;6.6;;
68224;SDS011;57497;43.322;21.932;2023-08-30T07:25:33;16.3;;;5.7;;
68224;SDS011;57497;43.322;21.932;2023-08-30T07:30:33;10.4;;;5.4;;
68224;SDS011;57497;43.322;21.932;2023-08-30T07:35:33;13.1;;;6.1;;
68224;SDS011;57497;43.322;21.932;2023-08-30T07:40:34;11.2;;;4;;
68224;SDS011;57497;43.322;21.932;2023-08-30T07:45:33;9.9;;;4.7;;
68224;SDS011;57497;43.322;21.932;2023-08-30T07:50:33;7.8;;;4.8;;
68224;SDS011;57497;43.322;21.932;2023-08-30T07:55:33;16.4;;;4.8;;
68224;SDS011;57497;43.322;21.932;2023-08-30T08:00:36;8.7;;;4.7;;
68224;SDS011;57497;43.322;21.932;2023-08-30T08:05:33;11.7;;;5.4;;
68224;SDS011;57497;43.322;21.932;2023-08-30T08:10:33;6.1;;;3.8;;
68224;SDS011;57497;43.322;21.932;2023-08-30T08:15:33;14.1;;;4.3;;
68224;SDS011;57497;43.322;21.932;2023-08-30T08:20:33;11.9;;;4.4;;
68224;SDS011;57497;43.322;21.932;2023-08-30T08:25:33;14;;;3.5;;
68224;SDS011;57497;43.322;21.932;2023-08-30T08:30:33;4.6;;;2.6;;
68224;SDS011;57497;43.322;21.932;2023-08-30T08:35:33;8.6;;;3.9;;
68224;SDS011;57497;43.322;21.932;2023-08-30T08:40:36;7.7;;;3.9;;
68224;SDS011;57497;43.322;21.932;2023-08-30T08:45:34;6.5;;;3.6;;
68224;SDS011;57497;43.322;21.932;2023-08-30T08:50:33;8.5;;;3.6;;
68224;SDS011;57497;43.322;21.932;2023-08-30T08:55:33;7.9;;;3.6;;
68224;SDS011;57497;43.322;21.932;2023-08-30T09:00:34;6.4;;;2.7;;
68224;SDS011;57497;43.322;21.932;2023-08-30T09:05:33;3.9;;;2.5;;
68224;SDS011;57497;43.322;21.932;2023-08-30T09:10:33;7.3;;;3.2;;
68224;SDS011;57497;43.322;21.932;2023-08-30T09:15:33;13.8;;;3.5;;
68224;SDS011;57497;43.322;21.932;2023-08-30T09:20:33;14.8;;;3.2;;
68224;SDS011;57497;43.322;21.932;2023-08-30T09:25:33;6.9;;;2.9;;
68224;SDS011;57497;43.322;21.932;2023-08-30T09:30:33;8.6;;;4.7;;
68224;SDS011;57497;43.322;21.932;2023-08-30T09:35:34;5.3;;;3.1;;
68224;SDS011;57497;43.322;21.932;2023-08-30T09:40:34;4;;;2;;
68224;SDS011;57497;43.322;21.932;2023-08-30T09:45:33;4.8;;;3.1;;
68224;SDS011;57497;43.322;21.932;2023-08-30T09:50:33;5.3;;;2.5;;
68224;SDS011;57497;43.322;21.932;2023-08-30T09:55:33;9.6;;;3.8;;
68224;SDS011;57497;43.322;21.932;2023-08-30T10:00:34;7.9;;;3.4;;
68224;SDS011;57497;43.322;21.932;2023-08-30T10:05:33;3.4;;;2.5;;
68224;SDS011;57497;43.322;21.932;2023-08-30T10:10:33;5.5;;;2.9;;
68224;SDS011;57497;43.322;21.932;2023-08-30T10:15:33;8.1;;;2.8;;
68224;SDS011;57497;43.322;21.932;2023-08-30T10:20:33;8.7;;;3.2;;
68224;SDS011;57497;43.322;21.932;2023-08-30T10:25:33;5.3;;;3.1;;
68224;SDS011;57497;43.322;21.932;2023-08-30T10:30:33;7.5;;;3;;
68224;SDS011;57497;43.322;21.932;2023-08-30T10:35:33;6.4;;;3.1;;
68224;SDS011;57497;43.322;21.932;2023-08-30T10:40:33;3.8;;;1.8;;
68224;SDS011;57497;43.322;21.932;2023-08-30T10:45:33;14.5;;;3.4;;
68224;SDS011;57497;43.322;21.932;2023-08-30T10:50:34;5.1;;;3.5;;
68224;SDS011;57497;43.322;21.932;2023-08-30T10:55:33;6.5;;;2.6;;
68224;SDS011;57497;43.322;21.932;2023-08-30T11:00:34;4.7;;;3.3;;
68224;SDS011;57497;43.322;21.932;2023-08-30T11:05:33;7.5;;;3;;
68224;SDS011;57497;43.322;21.932;2023-08-30T11:10:33;9.7;;;3.5;;
68224;SDS011;57497;43.322;21.932;2023-08-30T11:15:33;7.6;;;3.1;;
68224;SDS011;57497;43.322;21.932;2023-08-30T11:20:33;7.3;;;3.9;;
68224;SDS011;57497;43.322;21.932;2023-08-30T11:25:33;10.9;;;5.1;;
68224;SDS011;57497;43.322;21.932;2023-08-30T11:30:33;12.6;;;3.7;;
68224;SDS011;57497;43.322;21.932;2023-08-30T11:35:33;7.8;;;2.8;;
68224;SDS011;57497;43.322;21.932;2023-08-30T11:40:33;14.9;;;3.6;;
68224;SDS011;57497;43.322;21.932;2023-08-30T11:45:33;24.7;;;4.2;;
68224;SDS011;57497;43.322;21.932;2023-08-30T11:50:33;5.5;;;3.2;;
68224;SDS011;57497;43.322;21.932;2023-08-30T11:55:33;9.8;;;3.6;;
68224;SDS011;57497;43.322;21.932;2023-08-30T12:00:35;22.1;;;4.4;;
68224;SDS011;57497;43.322;21.932;2023-08-30T12:05:33;7.7;;;3.4;;
68224;SDS011;57497;43.322;21.932;2023-08-30T12:10:33;20.4;;;3.6;;
68224;SDS011;57497;43.322;21.932;2023-08-30T12:15:33;6.9;;;3.6;;
68224;SDS011;57497;43.322;21.932;2023-08-30T12:20:34;4.6;;;2.9;;
68224;SDS011;57497;43.322;21.932;2023-08-30T12:25:33;6.1;;;4;;
68224;SDS011;57497;43.322;21.932;2023-08-30T12:30:33;15.2;;;2.8;;
68224;SDS011;57497;43.322;21.932;2023-08-30T12:35:33;6.2;;;3.5;;
68224;SDS011;57497;43.322;21.932;2023-08-30T12:40:33;9.6;;;3.6;;
68224;SDS011;57497;43.322;21.932;2023-08-30T12:45:33;6.8;;;3.2;;
68224;SDS011;57497;43.322;21.932;2023-08-30T12:50:33;10.7;;;2.6;;
68224;SDS011;57497;43.322;21.932;2023-08-30T12:55:33;5.1;;;2.6;;
68224;SDS011;57497;43.322;21.932;2023-08-30T13:00:35;10.8;;;4.3;;
68224;SDS011;57497;43.322;21.932;2023-08-30T13:05:33;6.2;;;2.9;;
68224;SDS011;57497;43.322;21.932;2023-08-30T13:10:33;4.6;;;2.9;;
68224;SDS011;57497;43.322;21.932;2023-08-30T13:15:33;5.5;;;2.9;;
68224;SDS011;57497;43.322;21.932;2023-08-30T13:20:37;5.4;;;3.2;;
68224;SDS011;57497;43.322;21.932;2023-08-30T13:25:34;4.7;;;2.9;;
68224;SDS011;57497;43.322;21.932;2023-08-30T13:30:33;8.4;;;3.4;;
68224;SDS011;57497;43.322;21.932;2023-08-30T13:35:33;4.6;;;2.8;;
68224;SDS011;57497;43.322;21.932;2023-08-30T13:40:33;11;;;2.9;;
68224;SDS011;57497;43.322;21.932;2023-08-30T13:45:33;9.7;;;3.9;;
68224;SDS011;57497;43.322;21.932;2023-08-30T13:50:33;12.3;;;3.2;;
68224;SDS011;57497;43.322;21.932;2023-08-30T13:55:33;4.3;;;2.8;;
68224;SDS011;57497;43.322;21.932;2023-08-30T14:05:33;5.2;;;3.3;;
68224;SDS011;57497;43.322;21.932;2023-08-30T14:10:33;9.5;;;2.9;;
68224;SDS011;57497;43.322;21.932;2023-08-30T14:15:33;6.7;;;2.6;;
68224;SDS011;57497;43.322;21.932;2023-08-30T14:20:33;5.6;;;2.5;;
68224;SDS011;57497;43.322;21.932;2023-08-30T14:25:33;4.8;;;3.4;;
68224;SDS011;57497;43.322;21.932;2023-08-30T14:30:33;7.6;;;3.3;;
68224;SDS011;57497;43.322;21.932;2023-08-30T14:35:33;6.4;;;2.8;;
68224;SDS011;57497;43.322;21.932;2023-08-30T14:40:33;7.6;;;3.9;;
68224;SDS011;57497;43.322;21.932;2023-08-30T14:45:33;4.7;;;2.8;;
68224;SDS011;57497;43.322;21.932;2023-08-30T14:50:33;5.4;;;3.7;;
68224;SDS011;57497;43.322;21.932;2023-08-30T14:55:33;5;;;3.5;;
68224;SDS011;57497;43.322;21.932;2023-08-30T15:00:35;12.8;;;11.7;;
68224;SDS011;57497;43.322;21.932;2023-08-30T15:05:33;16.4;;;14.6;;
68224;SDS011;57497;43.322;21.932;2023-08-30T15:10:33;15.2;;;14.1;;
68224;SDS011;57497;43.322;21.932;2023-08-30T15:15:33;4.7;;;2.5;;
68224;SDS011;57497;43.322;21.932;2023-08-30T15:20:33;7.5;;;3.7;;
68224;SDS011;57497;43.322;21.932;2023-08-30T15:25:33;12.7;;;11.7;;
68224;SDS011;57497;43.322;21.932;2023-08-30T15:30:33;16.4;;;14.7;;
68224;SDS011;57497;43.322;21.932;2023-08-30T15:35:35;11.5;;;9.6;;
68224;SDS011;57497;43.322;21.932;2023-08-30T15:40:33;7.2;;;5.4;;
68224;SDS011;57497;43.322;21.932;2023-08-30T15:45:33;10.5;;;9.4;;
68224;SDS011;57497;43.322;21.932;2023-08-30T15:50:33;4.7;;;2.8;;
68224;SDS011;57497;43.322;21.932;2023-08-30T15:55:33;6.9;;;4.4;;
68224;SDS011;57497;43.322;21.932;2023-08-30T16:00:35;7;;;4.3;;
68224;SDS011;57497;43.322;21.932;2023-08-30T16:05:34;6.9;;;4.5;;
68224;SDS011;57497;43.322;21.932;2023-08-30T16:10:33;10.7;;;4.6;;
68224;SDS011;57497;43.322;21.932;2023-08-30T16:15:33;9.9;;;6;;
68224;SDS011;57497;43.322;21.932;2023-08-30T16:20:33;8.9;;;4;;
68224;SDS011;57497;43.322;21.932;2023-08-30T16:25:33;6.3;;;3.1;;
68224;SDS011;57497;43.322;21.932;2023-08-30T16:30:34;11.6;;;5;;
68224;SDS011;57497;43.322;21.932;2023-08-30T16:35:33;7.6;;;3.8;;
68224;SDS011;57497;43.322;21.932;2023-08-30T16:40:33;7.3;;;4.5;;
68224;SDS011;57497;43.322;21.932;2023-08-30T16:45:33;12.6;;;3.9;;
68224;SDS011;57497;43.322;21.932;2023-08-30T16:50:33;10.1;;;4;;
68224;SDS011;57497;43.322;21.932;2023-08-30T16:55:33;10.5;;;3.8;;
68224;SDS011;57497;43.322;21.932;2023-08-30T17:00:35;10.9;;;3.3;;
68224;SDS011;57497;43.322;21.932;2023-08-30T17:05:37;7.4;;;3.2;;
68224;SDS011;57497;43.322;21.932;2023-08-30T17:10:33;5.5;;;3.2;;
68224;SDS011;57497;43.322;21.932;2023-08-30T17:15:33;4.6;;;2.4;;
68224;SDS011;57497;43.322;21.932;2023-08-30T17:20:33;10.7;;;3.4;;
68224;SDS011;57497;43.322;21.932;2023-08-30T17:25:33;6.9;;;3.3;;
68224;SDS011;57497;43.322;21.932;2023-08-30T17:30:32;6.3;;;4.4;;
68224;SDS011;57497;43.322;21.932;2023-08-30T17:35:34;4.8;;;3.2;;
68224;SDS011;57497;43.322;21.932;2023-08-30T17:40:33;16.3;;;6.5;;
68224;SDS011;57497;43.322;21.932;2023-08-30T17:45:33;14;;;9.3;;
68224;SDS011;57497;43.322;21.932;2023-08-30T17:50:33;19.2;;;6.9;;
68224;SDS011;57497;43.322;21.932;2023-08-30T17:55:33;23.3;;;6.5;;
68224;SDS011;57497;43.322;21.932;2023-08-30T18:00:34;9.1;;;4.4;;
68224;SDS011;57497;43.322;21.932;2023-08-30T18:05:33;6.6;;;4.3;;
68224;SDS011;57497;43.322;21.932;2023-08-30T18:10:33;7.7;;;4.2;;
68224;SDS011;57497;43.322;21.932;2023-08-30T18:15:35;28.1;;;13;;
68224;SDS011;57497;43.322;21.932;2023-08-30T18:20:33;20.3;;;12.9;;
68224;SDS011;57497;43.322;21.932;2023-08-30T18:25:33;10.5;;;6.2;;
68224;SDS011;57497;43.322;21.932;2023-08-30T18:30:33;10.4;;;3.9;;
68224;SDS011;57497;43.322;21.932;2023-08-30T18:35:33;6.2;;;4;;
68224;SDS011;57497;43.322;21.932;2023-08-30T18:40:33;16.5;;;5.7;;
68224;SDS011;57497;43.322;21.932;2023-08-30T18:45:33;11.3;;;7.2;;
68224;SDS011;57497;43.322;21.932;2023-08-30T18:50:33;27.8;;;6.6;;
68224;SDS011;57497;43.322;21.932;2023-08-30T18:55:34;10.5;;;5.9;;
68224;SDS011;57497;43.322;21.932;2023-08-30T19:00:34;14.7;;;6.1;;
68224;SDS011;57497;43.322;21.932;2023-08-30T19:05:33;6.3;;;4.8;;
68224;SDS011;57497;43.322;21.932;2023-08-30T19:10:33;11.8;;;5;;
68224;SDS011;57497;43.322;21.932;2023-08-30T19:15:33;19.9;;;5;;
68224;SDS011;57497;43.322;21.932;2023-08-30T19:20:33;17.9;;;5;;
68224;SDS011;57497;43.322;21.932;2023-08-30T19:25:33;12.3;;;5;;
68224;SDS011;57497;43.322;21.932;2023-08-30T19:30:33;13.9;;;4.7;;
68224;SDS011;57497;43.322;21.932;2023-08-30T19:35:33;21.1;;;7;;
68224;SDS011;57497;43.322;21.932;2023-08-30T19:40:33;12.7;;;5.2;;
68224;SDS011;57497;43.322;21.932;2023-08-30T19:45:33;9.6;;;4.6;;
68224;SDS011;57497;43.322;21.932;2023-08-30T19:50:33;10.8;;;4.8;;
68224;SDS011;57497;43.322;21.932;2023-08-30T19:55:33;13.8;;;5.2;;
68224;SDS011;57497;43.322;21.932;2023-08-30T20:00:34;11;;;6.6;;
68224;SDS011;57497;43.322;21.932;2023-08-30T20:05:33;20.3;;;6.2;;
68224;SDS011;57497;43.322;21.932;2023-08-30T20:10:33;9.7;;;5.4;;
68224;SDS011;57497;43.322;21.932;2023-08-30T20:15:33;17.1;;;7.2;;
68224;SDS011;57497;43.322;21.932;2023-08-30T20:20:33;16.7;;;5.2;;
68224;SDS011;57497;43.322;21.932;2023-08-30T20:25:33;27.7;;;5.6;;
68224;SDS011;57497;43.322;21.932;2023-08-30T20:30:34;9;;;4.6;;
68224;SDS011;57497;43.322;21.932;2023-08-30T20:35:35;13.8;;;4.5;;
68224;SDS011;57497;43.322;21.932;2023-08-30T20:40:33;11.4;;;5.8;;
68224;SDS011;57497;43.322;21.932;2023-08-30T20:45:33;12.5;;;5.2;;
68224;SDS011;57497;43.322;21.932;2023-08-30T20:50:35;14.3;;;8.1;;
68224;SDS011;57497;43.322;21.932;2023-08-30T20:55:40;9.9;;;6.5;;
68224;SDS011;57497;43.322;21.932;2023-08-30T21:00:34;12.4;;;4.2;;
68224;SDS011;57497;43.322;21.932;2023-08-30T21:05:33;27;;;5.8;;
68224;SDS011;57497;43.322;21.932;2023-08-30T21:10:33;8;;;4.5;;
68224;SDS011;57497;43.322;21.932;2023-08-30T21:15:33;8.2;;;4.9;;
68224;SDS011;57497;43.322;21.932;2023-08-30T21:20:34;11.6;;;5.9;;
68224;SDS011;57497;43.322;21.932;2023-08-30T21:25:33;16.7;;;5;;
68224;SDS011;57497;43.322;21.932;2023-08-30T21:30:36;14.8;;;4.5;;
68224;SDS011;57497;43.322;21.932;2023-08-30T21:35:37;10.3;;;5.9;;
68224;SDS011;57497;43.322;21.932;2023-08-30T21:40:33;33.1;;;7.3;;
68224;SDS011;57497;43.322;21.932;2023-08-30T21:45:33;19.2;;;4.8;;
68224;SDS011;57497;43.322;21.932;2023-08-30T21:50:33;11.9;;;6;;
68224;SDS011;57497;43.322;21.932;2023-08-30T21:55:33;5.8;;;3.6;;
68224;SDS011;57497;43.322;21.932;2023-08-30T22:00:34;7;;;3.9;;
68224;SDS011;57497;43.322;21.932;2023-08-30T22:05:33;7.8;;;4;;
68224;SDS011;57497;43.322;21.932;2023-08-30T22:10:33;10.8;;;4.5;;
68224;SDS011;57497;43.322;21.932;2023-08-30T22:15:33;7.9;;;4.4;;
68224;SDS011;57497;43.322;21.932;2023-08-30T22:20:33;5.4;;;3.8;;
68224;SDS011;57497;43.322;21.932;2023-08-30T22:25:33;6.8;;;3.1;;
68224;SDS011;57497;43.322;21.932;2023-08-30T22:30:33;9.9;;;4;;
68224;SDS011;57497;43.322;21.932;2023-08-30T22:35:33;16.9;;;3.7;;
68224;SDS011;57497;43.322;21.932;2023-08-30T22:40:33;5.4;;;2.9;;
68224;SDS011;57497;43.322;21.932;2023-08-30T22:45:33;7.3;;;3.9;;
68224;SDS011;57497;43.322;21.932;2023-08-30T22:50:33;17;;;7.2;;
68224;SDS011;57497;43.322;21.932;2023-08-30T22:55:34;9.3;;;4.4;;
68224;SDS011;57497;43.322;21.932;2023-08-30T23:00:35;23.8;;;4.8;;
68224;SDS011;57497;43.322;21.932;2023-08-30T23:05:35;11.6;;;6;;
68224;SDS011;57497;43.322;21.932;2023-08-30T23:10:33;10;;;3.8;;
68224;SDS011;57497;43.322;21.932;2023-08-30T23:15:33;7.4;;;4.3;;
68224;SDS011;57497;43.322;21.932;2023-08-30T23:20:33;12.9;;;4.6;;
68224;SDS011;57497;43.322;21.932;2023-08-30T23:25:36;8.8;;;3.5;;
68224;SDS011;57497;43.322;21.932;2023-08-30T23:30:33;12.6;;;3.1;;
68224;SDS011;57497;43.322;21.932;2023-08-30T23:35:33;7;;;3.4;;
68224;SDS011;57497;43.322;21.932;2023-08-30T23:40:35;14.1;;;3.2;;
68224;SDS011;57497;43.322;21.932;2023-08-30T23:45:33;7;;;3.2;;
68224;SDS011;57497;43.322;21.932;2023-08-30T23:50:33;10.3;;;3;;
68224;SDS011;57497;43.322;21.932;2023-08-30T23:55:33;6.6;;;3.2;;
